createdAt,value
2022-08-19T00:01:30.810Z,20.94
2022-08-19T00:04:03.178Z,20.96
2022-08-19T00:06:33.248Z,20.87
2022-08-19T00:09:03.857Z,20.84
2022-08-19T00:11:32.570Z,20.95
2022-08-19T00:14:04.667Z,20.95
2022-08-19T00:16:34.942Z,21.03
2022-08-19T00:19:05.420Z,20.96
2022-08-19T00:21:34.396Z,21.01
2022-08-19T00:24:10.512Z,20.96
2022-08-19T00:26:41.745Z,20.99
2022-08-19T00:29:15.300Z,21.00
2022-08-19T00:31:45.327Z,20.90
2022-08-19T00:34:16.127Z,20.83
2022-08-19T00:36:45.459Z,20.82
2022-08-19T00:39:16.492Z,20.76
2022-08-19T00:41:50.514Z,20.73
2022-08-19T00:44:26.642Z,20.86
2022-08-19T00:46:58.845Z,20.87
2022-08-19T00:49:37.246Z,20.59
2022-08-19T00:52:12.209Z,20.70
2022-08-19T00:54:42.803Z,20.67
2022-08-19T00:57:14.598Z,20.74
2022-08-19T00:59:58.779Z,20.70
2022-08-19T01:02:24.693Z,20.66
2022-08-19T01:04:55.281Z,20.70
2022-08-19T01:07:24.596Z,20.62
2022-08-19T01:12:52.626Z,20.51
2022-08-19T01:15:28.907Z,20.40
2022-08-19T01:17:59.799Z,20.42
2022-08-19T01:20:30.323Z,20.43
2022-08-19T01:23:17.637Z,20.39
2022-08-19T01:25:57.504Z,20.34
2022-08-19T01:28:34.109Z,20.29
2022-08-19T01:31:08.188Z,20.26
2022-08-19T01:33:36.550Z,20.22
2022-08-19T01:36:11.820Z,20.30
2022-08-19T01:38:49.054Z,20.32
2022-08-19T01:41:19.107Z,20.28
2022-08-19T01:44:13.698Z,20.21
2022-08-19T01:46:25.056Z,20.07
2022-08-19T01:48:53.748Z,19.92
2022-08-19T01:51:23.951Z,19.88
2022-08-19T01:53:53.967Z,19.97
2022-08-19T01:56:22.697Z,19.91
2022-08-19T01:59:00.166Z,19.90
2022-08-19T02:01:30.409Z,19.81
2022-08-19T02:04:03.860Z,19.74
2022-08-19T02:06:32.579Z,19.74
2022-08-19T02:09:01.897Z,19.70
2022-08-19T02:11:34.461Z,19.72
2022-08-19T02:14:08.992Z,19.69
2022-08-19T02:16:39.367Z,19.75
2022-08-19T02:19:17.128Z,19.77
2022-08-19T02:21:46.388Z,19.76
2022-08-19T02:24:15.196Z,19.78
2022-08-19T02:26:43.921Z,19.78
2022-08-19T02:29:12.713Z,19.68
2022-08-19T02:31:41.497Z,19.53
2022-08-19T02:34:11.420Z,19.60
2022-08-19T02:36:42.522Z,19.56
2022-08-19T02:39:11.439Z,19.55
2022-08-19T02:41:40.227Z,19.49
2022-08-19T02:44:30.136Z,19.45
2022-08-19T02:46:41.229Z,19.45
2022-08-19T02:49:13.139Z,19.46
2022-08-19T02:51:46.567Z,19.38
2022-08-19T02:54:19.607Z,19.41
2022-08-19T02:56:48.374Z,19.40
2022-08-19T02:59:17.079Z,19.31
2022-08-19T03:01:48.564Z,19.18
2022-08-19T03:04:18.269Z,19.17
2022-08-19T03:06:48.876Z,19.19
2022-08-19T03:09:19.400Z,19.31
2022-08-19T03:11:48.626Z,19.24
2022-08-19T03:14:19.188Z,19.33
2022-08-19T03:16:51.002Z,19.32
2022-08-19T03:19:22.385Z,19.26
2022-08-19T03:21:52.014Z,19.12
2022-08-19T03:24:21.629Z,19.05
2022-08-19T03:26:53.637Z,19.00
2022-08-19T03:29:30.100Z,18.96
2022-08-19T03:31:55.621Z,18.88
2022-08-19T03:34:30.807Z,18.93
2022-08-19T03:37:01.684Z,18.94
2022-08-19T03:39:30.433Z,18.99
2022-08-19T03:42:33.187Z,19.00
2022-08-19T03:44:33.323Z,19.03
2022-08-19T03:47:05.566Z,19.11
2022-08-19T03:49:36.939Z,19.18
2022-08-19T03:52:07.919Z,19.20
2022-08-19T03:54:41.075Z,19.35
2022-08-19T03:57:17.094Z,19.44
2022-08-19T03:59:48.482Z,19.41
2022-08-19T04:02:17.037Z,19.43
2022-08-19T04:04:46.315Z,19.50
2022-08-19T04:07:26.375Z,19.53
2022-08-19T04:09:54.821Z,19.47
2022-08-19T04:12:23.953Z,19.62
2022-08-19T04:14:55.670Z,19.65
2022-08-19T04:17:30.518Z,19.83
2022-08-19T04:19:59.727Z,19.88
2022-08-19T04:22:34.179Z,19.93
2022-08-19T04:25:03.164Z,19.99
2022-08-19T04:27:33.948Z,20.14
2022-08-19T04:30:03.086Z,20.21
2022-08-19T04:32:38.053Z,20.35
2022-08-19T04:35:17.416Z,20.44
2022-08-19T04:37:43.908Z,20.50
2022-08-19T04:40:32.859Z,20.59
2022-08-19T04:43:02.405Z,20.60
2022-08-19T04:45:39.612Z,20.56
2022-08-19T04:48:27.425Z,20.53
2022-08-19T04:50:34.545Z,20.57
2022-08-19T04:53:04.591Z,20.61
2022-08-19T04:55:38.205Z,20.67
2022-08-19T04:58:05.973Z,20.80
2022-08-19T05:00:35.221Z,20.69
2022-08-19T05:03:05.072Z,20.73
2022-08-19T05:05:45.372Z,20.81
2022-08-19T05:08:12.712Z,20.94
2022-08-19T05:10:43.315Z,21.17
2022-08-19T05:13:13.525Z,21.27
2022-08-19T05:15:42.688Z,21.30
2022-08-19T05:18:29.809Z,21.39
2022-08-19T05:21:16.944Z,21.37
2022-08-19T05:23:46.171Z,21.45
2022-08-19T05:26:15.803Z,21.51
2022-08-19T05:28:44.432Z,21.73
2022-08-19T05:31:15.496Z,21.89
2022-08-19T05:33:47.800Z,22.03
2022-08-19T05:36:16.962Z,22.05
2022-08-19T05:39:08.434Z,22.06
2022-08-19T05:41:31.802Z,22.10
2022-08-19T05:44:02.447Z,22.27
2022-08-19T05:46:31.986Z,22.40
2022-08-19T05:49:02.096Z,22.47
2022-08-19T05:51:33.230Z,22.73
2022-08-19T05:54:04.246Z,22.73
2022-08-19T05:56:34.031Z,22.81
2022-08-19T05:59:02.705Z,22.92
2022-08-19T06:01:31.422Z,22.84
2022-08-19T06:04:02.042Z,22.94
2022-08-19T06:06:31.080Z,23.08
2022-08-19T06:09:01.298Z,23.25
2022-08-19T06:11:44.502Z,23.40
2022-08-19T06:14:18.149Z,23.58
2022-08-19T06:16:52.283Z,23.58
2022-08-19T06:19:26.577Z,23.61
2022-08-19T06:21:55.321Z,23.76
2022-08-19T06:24:28.437Z,23.86
2022-08-19T06:27:01.646Z,24.10
2022-08-19T06:29:31.985Z,24.02
2022-08-19T06:32:03.582Z,24.03
2022-08-19T06:34:35.076Z,24.21
2022-08-19T06:37:05.508Z,24.34
2022-08-19T06:39:37.960Z,24.41
2022-08-19T06:45:34.750Z,24.45
2022-08-19T06:48:00.568Z,24.37
2022-08-19T06:50:39.695Z,24.31
2022-08-19T06:55:56.746Z,24.86
2022-08-19T06:58:28.781Z,25.00
2022-08-19T07:01:13.869Z,25.16
2022-08-19T07:03:46.534Z,25.35
2022-08-19T07:06:44.460Z,25.48
2022-08-19T07:12:20.672Z,25.76
2022-08-19T07:27:06.778Z,26.20
2022-08-19T07:29:38.798Z,26.29
2022-08-19T07:32:11.563Z,26.60
2022-08-19T07:34:42.324Z,26.57
2022-08-19T07:37:12.057Z,26.19
2022-08-19T07:39:44.198Z,26.24
2022-08-19T07:42:14.225Z,26.57
2022-08-19T07:44:50.115Z,26.51
2022-08-19T07:47:50.025Z,26.85
2022-08-19T07:49:46.367Z,27.21
2022-08-19T07:52:15.401Z,27.46
2022-08-19T07:54:44.691Z,27.61
2022-08-19T07:57:13.654Z,27.59
2022-08-19T07:59:42.299Z,27.83
2022-08-19T08:02:15.969Z,27.91
2022-08-19T08:08:00.546Z,28.12
2022-08-19T08:10:31.429Z,28.36
2022-08-19T08:13:19.008Z,28.39
2022-08-19T08:15:49.535Z,28.32
2022-08-19T08:18:27.902Z,28.23
2022-08-19T08:23:41.891Z,28.40
2022-08-19T08:26:10.946Z,28.43
2022-08-19T08:28:55.904Z,28.69
2022-08-19T08:31:29.603Z,28.64
2022-08-19T08:34:00.196Z,28.61
2022-08-19T08:36:34.041Z,29.06
2022-08-19T08:39:12.275Z,29.23
2022-08-19T08:41:50.615Z,29.29
2022-08-19T08:44:45.638Z,29.53
2022-08-19T08:47:21.781Z,29.25
2022-08-19T08:50:02.535Z,29.60
2022-08-19T08:52:50.567Z,29.70
2022-08-19T08:55:26.196Z,29.72
2022-08-19T08:58:32.036Z,29.87
2022-08-19T09:01:05.689Z,29.81
2022-08-19T09:03:39.112Z,29.99
2022-08-19T09:06:36.381Z,30.20
2022-08-19T09:09:28.891Z,30.06
2022-08-19T09:12:07.146Z,30.17
2022-08-19T09:14:52.431Z,30.31
2022-08-19T09:17:26.175Z,30.50
2022-08-19T09:20:00.318Z,30.63
2022-08-19T09:22:37.129Z,30.73
2022-08-19T09:25:08.826Z,30.77
2022-08-19T09:27:43.392Z,30.91
2022-08-19T09:30:13.134Z,30.98
2022-08-19T09:32:44.557Z,31.03
2022-08-19T09:35:14.308Z,31.04
2022-08-19T09:37:45.564Z,31.09
2022-08-19T09:40:14.595Z,31.09
2022-08-19T09:42:50.296Z,30.95
2022-08-19T09:45:37.425Z,30.99
2022-08-19T09:47:58.057Z,31.15
2022-08-19T09:50:27.408Z,31.52
2022-08-19T09:52:57.507Z,31.77
2022-08-19T09:55:31.455Z,31.82
2022-08-19T09:57:58.039Z,32.00
2022-08-19T10:00:27.789Z,32.03
2022-08-19T10:03:01.030Z,32.05
2022-08-19T10:05:48.474Z,31.99
2022-08-19T10:08:50.225Z,31.92
2022-08-19T10:10:52.276Z,31.98
2022-08-19T10:16:20.200Z,31.64
2022-08-19T10:18:58.713Z,31.42
2022-08-19T10:21:28.050Z,31.59
2022-08-19T10:24:01.072Z,31.51
2022-08-19T10:26:32.752Z,31.43
2022-08-19T10:29:04.160Z,31.26
2022-08-19T10:32:01.275Z,31.15
2022-08-19T10:34:30.110Z,31.57
2022-08-19T10:37:02.079Z,31.87
2022-08-19T10:39:42.424Z,32.05
2022-08-19T10:42:08.466Z,31.95
2022-08-19T10:44:44.698Z,32.21
2022-08-19T10:47:21.897Z,32.21
2022-08-19T10:50:12.433Z,32.39
2022-08-19T10:53:11.740Z,32.59
2022-08-19T10:58:56.343Z,32.52
2022-08-19T11:02:04.492Z,32.36
2022-08-19T11:04:35.782Z,32.43
2022-08-19T11:07:13.529Z,32.60
2022-08-19T11:12:35.607Z,32.96
2022-08-19T11:15:04.565Z,32.93
2022-08-19T11:17:33.341Z,33.19
2022-08-19T11:20:05.476Z,32.81
2022-08-19T11:22:46.663Z,32.96
2022-08-19T11:28:27.336Z,32.87
2022-08-19T11:30:51.309Z,32.60
2022-08-19T11:33:27.001Z,32.86
2022-08-19T11:35:55.796Z,32.73
2022-08-19T11:38:57.782Z,32.58
2022-08-19T11:42:04.200Z,32.62
2022-08-19T11:44:38.484Z,32.74
2022-08-19T11:47:12.266Z,32.76
2022-08-19T11:49:41.484Z,32.68
2022-08-19T11:52:11.828Z,32.95
2022-08-19T11:54:40.684Z,32.62
2022-08-19T11:57:16.775Z,32.74
2022-08-19T11:59:54.298Z,32.76
2022-08-19T12:02:53.158Z,32.80
2022-08-19T12:05:10.218Z,32.68
2022-08-19T12:07:39.606Z,32.76
2022-08-19T12:10:10.615Z,32.85
2022-08-19T12:12:43.794Z,32.87
2022-08-19T12:15:15.167Z,33.14
2022-08-19T12:17:44.587Z,33.28
2022-08-19T12:20:18.431Z,33.44
2022-08-19T12:22:47.199Z,33.60
2022-08-19T12:25:20.443Z,33.51
2022-08-19T12:27:57.320Z,33.42
2022-08-19T12:30:21.917Z,33.64
2022-08-19T12:32:58.628Z,33.73
2022-08-19T12:35:27.777Z,33.53
2022-08-19T12:37:57.338Z,33.33
2022-08-19T12:40:26.796Z,33.48
2022-08-19T12:42:56.294Z,33.63
2022-08-19T12:45:25.693Z,33.60
2022-08-19T12:47:56.420Z,33.65
2022-08-19T12:50:31.819Z,33.59
2022-08-19T12:53:04.663Z,33.55
2022-08-19T12:55:38.090Z,33.52
2022-08-19T12:58:36.420Z,33.47
2022-08-19T13:01:14.649Z,33.25
2022-08-19T13:03:51.827Z,33.23
2022-08-19T13:06:20.615Z,33.50
2022-08-19T13:08:52.004Z,33.55
2022-08-19T13:11:26.822Z,33.70
2022-08-19T13:13:56.584Z,33.68
2022-08-19T13:16:29.242Z,33.85
2022-08-19T13:19:02.528Z,33.92
2022-08-19T13:24:39.056Z,34.08
2022-08-19T13:27:08.061Z,34.17
2022-08-19T13:30:02.529Z,34.21
2022-08-19T13:32:46.173Z,34.19
2022-08-19T13:35:18.742Z,34.04
2022-08-19T13:37:49.090Z,33.77
2022-08-19T13:40:24.920Z,33.79
2022-08-19T13:42:57.711Z,33.83
2022-08-19T13:45:28.327Z,33.86
2022-08-19T13:47:59.870Z,33.85
2022-08-19T13:50:32.504Z,33.85
2022-08-19T13:53:05.730Z,34.13
2022-08-19T13:55:34.751Z,34.13
2022-08-19T13:58:07.163Z,34.15
2022-08-19T14:03:39.245Z,33.74
2022-08-19T14:06:28.803Z,33.74
2022-08-19T14:08:53.842Z,33.70
2022-08-19T14:11:26.590Z,33.90
2022-08-19T14:13:55.635Z,33.90
2022-08-19T14:19:23.561Z,33.98
2022-08-19T14:21:54.298Z,34.14
2022-08-19T14:24:25.021Z,34.23
2022-08-19T14:26:54.008Z,34.20
2022-08-19T14:29:23.094Z,34.15
2022-08-19T14:31:53.750Z,34.09
2022-08-19T14:34:26.018Z,34.09
2022-08-19T14:36:55.708Z,34.28
2022-08-19T14:39:32.009Z,34.30
2022-08-19T14:42:11.263Z,34.51
2022-08-19T14:44:44.938Z,34.81
2022-08-19T14:47:36.874Z,35.48
2022-08-19T14:53:19.344Z,36.43
2022-08-19T14:55:53.892Z,37.21
2022-08-19T14:58:43.602Z,37.02
2022-08-19T15:01:06.017Z,36.52
2022-08-19T15:03:51.152Z,36.39
2022-08-19T15:06:35.288Z,36.32
2022-08-19T15:09:07.269Z,36.95
2022-08-19T15:11:40.567Z,37.51
2022-08-19T15:14:12.799Z,37.57
2022-08-19T15:16:43.134Z,37.65
2022-08-19T15:19:12.868Z,37.87
2022-08-19T15:21:42.198Z,37.66
2022-08-19T15:24:10.920Z,37.64
2022-08-19T15:26:39.649Z,37.37
2022-08-19T15:29:08.329Z,37.08
2022-08-19T15:31:38.910Z,37.37
2022-08-19T15:34:10.060Z,37.52
2022-08-19T15:36:54.414Z,37.71
2022-08-19T15:39:23.308Z,37.11
2022-08-19T15:41:57.237Z,37.27
2022-08-19T15:44:28.662Z,37.36
2022-08-19T15:46:57.901Z,37.42
2022-08-19T15:49:27.071Z,37.19
2022-08-19T15:52:09.880Z,37.10
2022-08-19T15:58:34.553Z,37.27
2022-08-19T16:01:40.428Z,37.08
2022-08-19T16:10:47.002Z,36.27
2022-08-19T16:19:28.329Z,34.55
2022-08-19T16:22:01.095Z,34.17
2022-08-19T16:24:35.092Z,33.76
2022-08-19T16:27:06.842Z,33.38
2022-08-19T16:29:39.134Z,33.23
2022-08-19T16:32:10.318Z,33.05
2022-08-19T16:34:42.515Z,32.81
2022-08-19T16:37:11.663Z,32.42
2022-08-19T16:39:44.364Z,32.30
2022-08-19T16:45:05.066Z,32.01
2022-08-19T16:47:33.823Z,31.80
2022-08-19T16:50:05.232Z,31.65
2022-08-19T16:52:35.006Z,31.59
2022-08-19T16:55:22.621Z,31.43
2022-08-19T16:57:54.686Z,31.29
2022-08-19T17:00:23.737Z,31.04
2022-08-19T17:02:54.270Z,31.04
2022-08-19T17:05:23.294Z,30.89
2022-08-19T17:07:53.411Z,30.75
2022-08-19T17:10:22.784Z,30.70
2022-08-19T17:12:57.423Z,30.54
2022-08-19T17:15:26.122Z,30.44
2022-08-19T17:18:14.368Z,30.27
2022-08-19T17:20:44.007Z,30.09
2022-08-19T17:23:15.800Z,29.94
2022-08-19T17:25:44.221Z,29.79
2022-08-19T17:28:25.556Z,29.62
2022-08-19T17:31:07.840Z,29.49
2022-08-19T17:33:48.103Z,29.32
2022-08-19T17:36:10.702Z,29.19
2022-08-19T17:38:42.323Z,29.05
2022-08-19T17:41:11.649Z,28.91
2022-08-19T17:43:43.924Z,28.75
2022-08-19T17:46:17.646Z,28.68
2022-08-19T17:48:47.402Z,28.49
2022-08-19T17:51:24.602Z,28.33
2022-08-19T17:53:57.530Z,28.21
2022-08-19T17:56:28.101Z,28.11
2022-08-19T17:59:01.635Z,28.07
2022-08-19T18:01:44.029Z,27.96
2022-08-19T18:04:06.003Z,27.91
2022-08-19T18:06:36.693Z,27.85
2022-08-19T18:09:10.011Z,27.81
2022-08-19T18:11:45.229Z,27.68
2022-08-19T18:14:15.801Z,27.54
2022-08-19T18:16:45.182Z,27.46
2022-08-19T18:19:17.227Z,27.41
2022-08-19T18:21:47.272Z,27.40
2022-08-19T18:24:16.992Z,27.30
2022-08-19T18:26:45.740Z,27.30
2022-08-19T18:29:15.057Z,27.30
2022-08-19T18:31:47.788Z,27.22
2022-08-19T18:34:17.155Z,27.15
2022-08-19T18:36:54.158Z,27.09
2022-08-19T18:39:35.216Z,26.93
2022-08-19T18:42:23.784Z,27.02
2022-08-19T18:45:12.748Z,26.96
2022-08-19T18:48:00.378Z,26.86
2022-08-19T18:50:29.110Z,26.85
2022-08-19T18:53:01.863Z,26.70
2022-08-19T18:55:30.490Z,26.62
2022-08-19T18:57:59.246Z,26.62
2022-08-19T19:00:27.936Z,26.65
2022-08-19T19:02:58.131Z,26.49
2022-08-19T19:05:32.637Z,26.45
2022-08-19T19:08:01.724Z,26.41
2022-08-19T19:10:31.556Z,26.36
2022-08-19T19:13:01.550Z,26.31
2022-08-19T19:15:30.334Z,26.39
2022-08-19T19:17:59.884Z,26.29
2022-08-19T19:20:36.378Z,26.24
2022-08-19T19:23:03.532Z,26.25
2022-08-19T19:25:50.713Z,26.16
2022-08-19T19:28:04.189Z,26.19
2022-08-19T19:30:36.384Z,26.13
2022-08-19T19:33:05.581Z,26.08
2022-08-19T19:35:36.084Z,26.06
2022-08-19T19:38:06.492Z,26.01
2022-08-19T19:40:35.270Z,25.95
2022-08-19T19:43:05.670Z,25.87
2022-08-19T19:45:34.676Z,25.86
2022-08-19T19:48:03.383Z,25.82
2022-08-19T19:50:32.501Z,25.81
2022-08-19T19:53:01.208Z,25.80
2022-08-19T19:55:29.904Z,25.75
2022-08-19T19:57:58.574Z,25.69
2022-08-19T20:00:30.382Z,25.69
2022-08-19T20:02:59.019Z,25.67
2022-08-19T20:05:27.926Z,25.61
2022-08-19T20:08:15.230Z,25.61
2022-08-19T20:10:45.170Z,25.60
2022-08-19T20:13:15.916Z,25.55
2022-08-19T20:15:47.337Z,25.53
2022-08-19T20:18:17.399Z,25.59
2022-08-19T20:20:48.038Z,25.51
2022-08-19T20:23:21.769Z,25.44
2022-08-19T20:25:52.192Z,25.41
2022-08-19T20:28:22.944Z,25.22
2022-08-19T20:30:52.194Z,25.26
2022-08-19T20:33:21.090Z,25.21
2022-08-19T20:35:51.882Z,25.18
2022-08-19T20:38:23.959Z,25.22
2022-08-19T20:40:54.063Z,25.28
2022-08-19T20:43:22.820Z,25.17
2022-08-19T20:45:51.532Z,25.08
2022-08-19T20:51:00.815Z,25.11
2022-08-19T20:53:29.527Z,25.01
2022-08-19T20:55:59.731Z,24.96
2022-08-19T20:58:29.100Z,24.89
2022-08-19T21:01:01.155Z,24.83
2022-08-19T21:03:42.913Z,24.87
2022-08-19T21:06:10.409Z,24.94
2022-08-19T21:08:42.005Z,24.89
2022-08-19T21:13:54.508Z,24.88
2022-08-19T21:16:36.777Z,24.81
2022-08-19T21:19:07.417Z,24.78
2022-08-19T21:21:36.314Z,24.81
2022-08-19T21:24:20.592Z,24.79
2022-08-19T21:26:52.838Z,24.74
2022-08-19T21:29:23.558Z,24.72
2022-08-19T21:31:53.772Z,24.64
2022-08-19T21:34:30.236Z,24.63
2022-08-19T21:37:00.008Z,24.60
2022-08-19T21:39:31.804Z,24.58
2022-08-19T21:42:05.174Z,24.65
2022-08-19T21:44:33.999Z,24.69
2022-08-19T21:49:17.963Z,24.62
2022-08-19T21:49:41.501Z,24.56
2022-08-19T21:52:12.723Z,24.51
2022-08-19T21:54:42.455Z,24.52
2022-08-19T21:57:17.393Z,24.54
2022-08-19T21:59:49.544Z,24.59
2022-08-19T22:02:25.628Z,24.55
2022-08-19T22:04:58.977Z,24.53
2022-08-19T22:07:32.624Z,24.53
2022-08-19T22:10:17.070Z,24.46
2022-08-19T22:13:13.758Z,24.44
2022-08-19T22:15:47.949Z,24.45
2022-08-19T22:18:34.860Z,24.41
2022-08-19T22:21:01.196Z,24.38
2022-08-19T22:23:31.897Z,24.40
2022-08-19T22:26:03.895Z,24.45
2022-08-19T22:28:34.300Z,24.46
2022-08-19T22:31:10.157Z,24.39
2022-08-19T22:33:42.782Z,24.45
2022-08-19T22:36:12.015Z,24.40
2022-08-19T22:38:42.086Z,24.41
2022-08-19T22:41:20.880Z,24.33
2022-08-19T22:43:52.761Z,24.34
2022-08-19T22:46:22.003Z,24.32
2022-08-19T22:49:00.943Z,24.21
2022-08-19T22:51:41.056Z,24.25
2022-08-19T22:54:09.884Z,24.24
2022-08-19T22:56:39.740Z,24.22
2022-08-19T22:59:08.606Z,24.14
2022-08-19T23:01:38.946Z,24.13
2022-08-19T23:04:07.861Z,24.09
2022-08-19T23:06:55.776Z,24.06
2022-08-19T23:09:30.437Z,24.03
2022-08-19T23:12:00.932Z,24.13
2022-08-19T23:14:36.050Z,24.04
2022-08-19T23:17:10.045Z,24.04
2022-08-19T23:19:39.148Z,24.03
2022-08-19T23:22:09.503Z,24.04
2022-08-19T23:24:41.075Z,23.98
2022-08-19T23:27:31.046Z,23.92
2022-08-19T23:30:19.983Z,23.89
2022-08-19T23:32:48.854Z,23.94
2022-08-19T23:35:17.639Z,23.93
2022-08-19T23:37:47.050Z,23.91
2022-08-19T23:40:21.152Z,23.90
2022-08-19T23:42:52.003Z,23.89
2022-08-19T23:45:23.949Z,23.89
2022-08-19T23:47:57.649Z,23.90
2022-08-19T23:50:27.773Z,23.83
2022-08-19T23:52:59.047Z,23.80
2022-08-19T23:55:30.677Z,23.82
2022-08-19T23:58:00.050Z,23.77
